Time;durP1;ratioP1;P1;durP2;ratioP2;P2;SDS_P1;SDS_P2;PMS_P1;PMS_P2;Temp;Humidity;BMP_temperature;BMP_pressure;BME280_temperature;BME280_humidity;BME280_pressure;Samples;Min_cycle;Max_cycle;Signal;HPM_P1;HPM_P2
2022/11/01 00:01:31;;;;;;;15.55;9.18;;;;;;;;;;6127125;19;19929;-70
2022/11/01 00:03:35;;;;;;;18.90;9.70;;;12.20;99.90;;;;;;6128761;19;20001;-71
2022/11/01 00:05:39;;;;;;;19.02;8.73;;;;;;;;;;6130314;19;19922;-70
2022/11/01 00:07:43;;;;;;;20.42;8.45;;;;;;;;;;6128490;19;20011;-71
2022/11/01 00:09:47;;;;;;;21.45;10.10;;;12.10;99.90;;;;;;6131244;19;19915;-70
2022/11/01 00:11:51;;;;;;;18.92;9.05;;;12.30;99.90;;;;;;6131325;19;19930;-71
2022/11/01 00:13:58;;;;;;;17.63;9.05;;;12.30;99.90;;;;;;6128543;19;19915;-70
2022/11/01 00:16:02;;;;;;;18.83;8.50;;;12.10;99.90;;;;;;6131186;19;19922;-71
2022/11/01 00:18:06;;;;;;;20.85;9.43;;;12.50;99.90;;;;;;6128245;19;19921;-69
2022/11/01 00:20:11;;;;;;;18.65;9.23;;;12.40;99.90;;;;;;6129678;19;19914;-70
2022/11/01 00:22:15;;;;;;;19.27;9.38;;;12.10;99.90;;;;;;6130774;19;19950;-71
2022/11/01 00:24:19;;;;;;;20.70;8.13;;;12.40;99.90;;;;;;6130835;19;19945;-70
2022/11/01 00:26:25;;;;;;;17.73;9.07;;;12.40;99.90;;;;;;6131895;19;19923;-70
2022/11/01 00:28:29;;;;;;;18.08;8.32;;;12.40;99.90;;;;;;6128572;19;19919;-70
2022/11/01 00:30:38;;;;;;;19.30;8.82;;;12.10;99.90;;;;;;6129680;19;19918;-70
2022/11/01 00:32:42;;;;;;;16.23;8.10;;;12.40;99.90;;;;;;6130237;19;19923;-70
2022/11/01 00:34:46;;;;;;;16.80;7.90;;;12.30;99.90;;;;;;6129415;19;19919;-70
2022/11/01 00:36:50;;;;;;;18.55;8.82;;;12.30;99.90;;;;;;6128326;19;19941;-70
2022/11/01 00:38:54;;;;;;;17.20;7.70;;;12.50;99.90;;;;;;6128689;19;19942;-70
2022/11/01 00:40:58;;;;;;;15.02;8.25;;;12.40;99.90;;;;;;6128379;19;19915;-70
2022/11/01 00:43:02;;;;;;;18.67;8.27;;;12.50;99.90;;;;;;6129081;19;19922;-70
2022/11/01 00:45:07;;;;;;;19.15;8.15;;;12.50;99.90;;;;;;6128443;19;19929;-70
2022/11/01 00:47:13;;;;;;;18.02;7.95;;;12.30;99.90;;;;;;6129115;19;19910;-70
2022/11/01 00:49:17;;;;;;;16.90;7.97;;;12.50;99.90;;;;;;6128775;19;20336;-70
2022/11/01 00:51:21;;;;;;;15.23;7.50;;;12.50;99.90;;;;;;6129029;19;20536;-70
2022/11/01 00:53:24;;;;;;;19.85;8.68;;;12.30;99.90;;;;;;6128739;19;19945;-70
2022/11/01 00:55:28;;;;;;;23.65;8.52;;;12.40;99.90;;;;;;6126215;19;20011;-70
2022/11/01 00:57:32;;;;;;;14.77;7.07;;;12.40;99.90;;;;;;6127825;19;19921;-70
2022/11/01 00:59:36;;;;;;;17.23;7.82;;;12.50;99.90;;;;;;6126975;19;20569;-70
2022/11/01 01:01:40;;;;;;;14.80;7.28;;;12.30;99.90;;;;;;6128671;19;20332;-70
2022/11/01 01:03:46;;;;;;;17.05;8.15;;;12.40;99.90;;;;;;6128011;19;19942;-69
2022/11/01 01:05:52;;;;;;;15.02;7.43;;;12.50;99.90;;;;;;6127728;19;19945;-70
2022/11/01 01:07:56;;;;;;;15.75;6.90;;;12.60;99.90;;;;;;6127179;19;19921;-70
2022/11/01 01:10:00;;;;;;;15.88;6.97;;;12.50;99.90;;;;;;6127750;19;20254;-69
2022/11/01 01:12:04;;;;;;;17.75;7.78;;;12.30;99.90;;;;;;6126991;19;19915;-70
2022/11/01 01:14:08;;;;;;;11.95;7.07;;;12.20;99.90;;;;;;6129245;19;20367;-70
2022/11/01 01:16:14;;;;;;;20.00;7.75;;;12.60;99.90;;;;;;6126985;19;19914;-70
2022/11/01 01:18:18;;;;;;;18.60;9.98;;;12.50;99.90;;;;;;6127019;19;19923;-70
2022/11/01 01:20:25;;;;;;;13.00;7.15;;;12.50;99.90;;;;;;6127491;19;19942;-70
2022/11/01 01:22:29;;;;;;;14.57;6.90;;;12.70;99.90;;;;;;6126329;19;20639;-70
2022/11/01 01:24:34;;;;;;;13.57;7.00;;;12.60;99.90;;;;;;6129383;19;19918;-70
2022/11/01 01:26:37;;;;;;;14.88;6.93;;;12.70;99.90;;;;;;6127244;19;19919;-70
2022/11/01 01:28:41;;;;;;;13.85;7.32;;;12.40;99.90;;;;;;6126821;19;19918;-69
2022/11/01 01:30:45;;;;;;;14.52;7.43;;;13.00;99.90;;;;;;6127365;19;19914;-70
2022/11/01 01:32:49;;;;;;;17.15;7.18;;;;;;;;;;6127053;19;19911;-70
2022/11/01 01:34:54;;;;;;;14.52;7.35;;;12.80;99.90;;;;;;6129465;19;19923;-70
2022/11/01 01:37:00;;;;;;;14.05;6.85;;;12.70;99.90;;;;;;6126590;19;19914;-70
2022/11/01 01:39:05;;;;;;;17.17;7.07;;;12.60;99.90;;;;;;6126205;19;19919;-70
2022/11/01 01:43:42;;;;;;;12.45;6.38;;;12.80;99.90;;;;;;6126442;19;20344;-70
2022/11/01 01:45:46;;;;;;;15.25;7.35;;;12.50;99.90;;;;;;6128026;19;19935;-70
2022/11/01 01:47:53;;;;;;;14.48;6.97;;;12.60;99.90;;;;;;6126543;19;19925;-70
2022/11/01 01:50:01;;;;;;;13.25;6.80;;;12.60;99.90;;;;;;6125994;19;19984;-70
2022/11/01 01:52:08;;;;;;;11.75;5.93;;;12.80;99.90;;;;;;6126072;19;19919;-70
2022/11/01 01:54:12;;;;;;;15.23;6.93;;;12.80;99.90;;;;;;6127168;19;19919;-70
2022/11/01 01:56:19;;;;;;;11.52;6.28;;;12.60;99.90;;;;;;6126250;19;19918;-70
2022/11/01 01:58:27;;;;;;;14.65;6.57;;;12.60;99.90;;;;;;6126423;19;19918;-69
2022/11/01 02:00:31;;;;;;;14.85;6.13;;;12.50;99.90;;;;;;6126194;19;19914;-70
2022/11/01 02:02:35;;;;;;;12.30;6.22;;;12.80;99.90;;;;;;6126105;19;19923;-70
2022/11/01 02:04:44;;;;;;;10.90;5.57;;;12.70;99.90;;;;;;6127889;19;19919;-70
2022/11/01 02:06:49;;;;;;;10.38;5.78;;;13.10;99.90;;;;;;6124067;19;19915;-70
2022/11/01 02:08:58;;;;;;;12.13;5.32;;;12.50;99.90;;;;;;6127545;19;19929;-70
2022/11/01 02:11:02;;;;;;;;;;;12.80;99.90;;;;;;6130166;19;19922;-70
2022/11/01 02:13:13;;;;;;;9.63;6.07;;;12.50;99.90;;;;;;6128993;19;19926;-70
2022/11/01 02:15:18;;;;;;;16.63;6.18;;;12.90;99.90;;;;;;6130956;19;19914;-70
2022/11/01 02:17:30;;;;;;;10.82;5.30;;;12.80;99.90;;;;;;6130986;19;20295;-70
2022/11/01 02:19:59;;;;;;;11.52;6.22;;;12.80;99.90;;;;;;6130688;19;19918;-70
2022/11/01 02:22:08;;;;;;;9.70;5.25;;;12.60;99.90;;;;;;6129416;19;19910;-70
2022/11/01 02:24:45;;;;;;;10.65;5.25;;;12.60;99.90;;;;;;6132476;19;19926;-70
2022/11/01 02:27:17;;;;;;;11.15;5.30;;;12.50;99.90;;;;;;6130855;19;19914;-71
2022/11/01 02:29:41;;;;;;;9.13;4.95;;;12.60;99.90;;;;;;6131246;19;19918;-70
2022/11/01 02:32:17;;;;;;;14.27;5.22;;;12.70;99.90;;;;;;6133166;19;19941;-71
2022/11/01 02:34:27;;;;;;;9.77;4.93;;;13.50;99.90;;;;;;6131765;19;19918;-70
2022/11/01 02:36:37;;;;;;;8.55;5.07;;;12.70;99.90;;;;;;6130904;19;19918;-70
2022/11/01 02:38:47;;;;;;;10.23;4.95;;;12.50;99.90;;;;;;6130760;19;19926;-70
2022/11/01 02:41:02;;;;;;;9.10;5.05;;;13.00;99.90;;;;;;6132615;19;20384;-70
2022/11/01 02:43:11;;;;;;;14.10;5.10;;;12.80;99.90;;;;;;6131643;19;19938;-71
2022/11/01 02:45:27;;;;;;;9.13;5.15;;;12.70;99.90;;;;;;6131372;19;19922;-71
2022/11/01 02:47:35;;;;;;;9.90;5.05;;;12.80;99.90;;;;;;6130543;19;19927;-71
2022/11/01 02:49:42;;;;;;;12.55;4.82;;;12.90;99.90;;;;;;6130113;19;19922;-70
2022/11/01 02:51:46;;;;;;;12.85;4.70;;;12.50;99.90;;;;;;6130263;19;19921;-71
2022/11/01 02:53:50;;;;;;;10.63;5.05;;;12.90;99.90;;;;;;6129726;19;19918;-71
2022/11/01 02:55:55;;;;;;;17.90;6.00;;;12.90;99.90;;;;;;6132849;19;19925;-70
2022/11/01 02:58:00;;;;;;;12.30;4.80;;;12.70;99.90;;;;;;6132728;19;19918;-70
2022/11/01 03:00:21;;;;;;;9.88;5.00;;;12.80;99.90;;;;;;6132821;19;19915;-71
2022/11/01 03:02:38;;;;;;;;;;;12.90;99.90;;;;;;6132753;19;19918;-71
2022/11/01 03:04:44;;;;;;;9.48;5.00;;;12.50;99.90;;;;;;6130065;19;19926;-70
2022/11/01 03:06:53;;;;;;;9.30;4.65;;;13.20;99.90;;;;;;6130149;19;19918;-71
2022/11/01 03:09:00;;;;;;;9.73;4.65;;;13.00;99.90;;;;;;6129949;19;19923;-71
2022/11/01 03:11:11;;;;;;;11.10;4.85;;;12.90;99.90;;;;;;6131340;19;19922;-70
2022/11/01 03:13:31;;;;;;;13.88;5.07;;;13.30;99.90;;;;;;6133438;19;20284;-70
2022/11/01 03:15:38;;;;;;;7.72;4.03;;;13.10;99.90;;;;;;6129977;19;19919;-70
2022/11/01 03:17:49;;;;;;;12.27;4.60;;;12.80;99.90;;;;;;6131152;19;19925;-70
2022/11/01 03:20:01;;;;;;;11.07;4.65;;;13.20;99.90;;;;;;6128127;19;19942;-71
2022/11/01 03:22:12;;;;;;;12.20;5.43;;;12.80;99.90;;;;;;6131402;19;19937;-71
2022/11/01 03:24:23;;;;;;;9.15;4.97;;;13.10;99.90;;;;;;6129824;19;19978;-71
2022/11/01 03:26:30;;;;;;;10.02;4.30;;;13.00;99.90;;;;;;6133089;19;19910;-71
2022/11/01 03:28:40;;;;;;;10.57;4.30;;;13.10;99.90;;;;;;6131276;19;19918;-71
2022/11/01 03:30:49;;;;;;;10.52;4.80;;;13.00;99.90;;;;;;6128381;19;19946;-71
2022/11/01 03:32:57;;;;;;;8.10;4.85;;;12.80;99.90;;;;;;6129399;19;19926;-71
2022/11/01 03:35:05;;;;;;;8.35;4.43;;;13.30;99.90;;;;;;6129633;19;20492;-71
2022/11/01 03:37:12;;;;;;;;;;;13.20;99.90;;;;;;6132065;19;19945;-71
2022/11/01 03:39:20;;;;;;;12.32;5.00;;;13.40;99.90;;;;;;6131571;19;19953;-70
2022/11/01 03:41:26;;;;;;;10.75;4.82;;;12.90;99.90;;;;;;6128673;19;19987;-70
2022/11/01 03:43:32;;;;;;;14.38;5.13;;;13.00;99.90;;;;;;6129101;19;19930;-70
2022/11/01 03:45:39;;;;;;;9.07;4.72;;;12.80;99.90;;;;;;6129490;19;19918;-69
2022/11/01 03:47:43;;;;;;;9.50;4.18;;;13.00;99.90;;;;;;6128833;19;19910;-70
2022/11/01 03:49:47;;;;;;;10.98;5.20;;;;;;;;;;6130408;19;20018;-71
2022/11/01 03:51:53;;;;;;;7.72;4.20;;;13.10;99.90;;;;;;6128763;19;19910;-70
2022/11/01 03:53:57;;;;;;;11.65;4.10;;;13.20;99.90;;;;;;6129035;19;19921;-70
2022/11/01 03:56:01;;;;;;;9.63;4.55;;;13.30;99.90;;;;;;6128966;19;19919;-70
2022/11/01 03:58:06;;;;;;;8.02;3.70;;;13.40;99.90;;;;;;6129185;19;19918;-70
2022/11/01 04:00:11;;;;;;;6.72;4.43;;;13.60;99.90;;;;;;6128986;19;19931;-70
2022/11/01 04:02:15;;;;;;;10.60;4.40;;;13.50;99.90;;;;;;6125828;19;19923;-70
2022/11/01 04:04:19;;;;;;;11.13;4.72;;;13.10;99.90;;;;;;6128185;19;19950;-70
2022/11/01 04:06:23;;;;;;;9.63;4.20;;;;;;;;;;6127332;19;19907;-70
2022/11/01 04:08:30;;;;;;;9.15;4.50;;;13.60;99.90;;;;;;6127014;19;19927;-70
2022/11/01 04:10:34;;;;;;;6.50;3.97;;;13.20;99.90;;;;;;6127334;19;19929;-71
2022/11/01 04:12:37;;;;;;;10.82;4.68;;;13.40;99.90;;;;;;6127372;19;20324;-70
2022/11/01 04:21:32;;;;;;;9.27;4.13;;;13.30;99.90;;;;;;6126763;19;19918;-70
2022/11/01 04:23:39;;;;;;;8.98;4.38;;;13.30;99.90;;;;;;6128123;19;19941;-69
2022/11/01 04:25:42;;;;;;;8.93;4.18;;;12.80;99.90;;;;;;6126726;19;19923;-70
2022/11/01 04:27:46;;;;;;;9.95;4.13;;;13.10;99.90;;;;;;6129645;19;19938;-70
2022/11/01 04:29:50;;;;;;;7.85;4.05;;;13.30;99.90;;;;;;6126462;19;20256;-70
2022/11/01 04:31:54;;;;;;;6.63;3.45;;;13.40;99.90;;;;;;6123922;19;20646;-70
2022/11/01 04:33:58;;;;;;;7.88;3.97;;;13.60;99.90;;;;;;6127227;19;19929;-70
2022/11/01 04:36:06;;;;;;;8.82;3.72;;;13.20;99.90;;;;;;6126376;19;19914;-70
2022/11/01 04:38:12;;;;;;;9.45;4.13;;;13.20;99.90;;;;;;6125047;19;19950;-70
2022/11/01 04:40:19;;;;;;;11.10;3.88;;;13.30;99.90;;;;;;6126423;19;19942;-70
2022/11/01 04:42:23;;;;;;;8.52;3.70;;;13.50;99.90;;;;;;6125327;19;19918;-72
2022/11/01 04:44:27;;;;;;;7.65;3.38;;;;;;;;;;6126485;19;19941;-70
2022/11/01 04:46:32;;;;;;;7.43;3.40;;;13.40;99.90;;;;;;6126333;19;19914;-71
2022/11/01 04:48:36;;;;;;;9.30;3.97;;;13.10;99.90;;;;;;6127339;19;19955;-71
2022/11/01 04:50:40;;;;;;;6.63;3.15;;;13.50;99.90;;;;;;6126831;19;19921;-71
2022/11/01 04:55:48;;;;;;;7.10;3.90;;;13.40;99.90;;;;;;6123700;19;19990;-71
2022/11/01 04:57:52;;;;;;;9.18;3.42;;;;;;;;;;6122048;19;19941;-70
2022/11/01 04:59:57;;;;;;;7.93;3.60;;;14.00;99.90;;;;;;6128331;19;19919;-71
2022/11/01 05:02:01;;;;;;;11.75;3.38;;;14.00;99.90;;;;;;5983735;19;2783755;-71
2022/11/01 05:04:05;;;;;;;5.88;3.03;;;13.70;99.90;;;;;;6128570;19;19922;-71
2022/11/01 05:06:09;;;;;;;7.65;3.47;;;13.80;99.90;;;;;;6130859;19;19926;-71
2022/11/01 05:08:14;;;;;;;9.77;3.38;;;14.30;99.90;;;;;;6129943;19;19943;-71
2022/11/01 05:10:18;;;;;;;5.65;3.60;;;13.70;99.90;;;;;;6127627;19;19915;-71
2022/11/01 05:12:25;;;;;;;8.93;3.53;;;13.60;99.90;;;;;;6127178;19;19945;-71
2022/11/01 05:14:28;;;;;;;8.90;3.50;;;13.60;99.90;;;;;;6129716;19;19915;-71
2022/11/01 05:16:32;;;;;;;8.65;3.45;;;13.50;99.90;;;;;;6130026;19;19918;-71
2022/11/01 05:18:39;;;;;;;9.43;3.15;;;13.30;99.90;;;;;;6127244;19;20308;-70
2022/11/01 05:20:43;;;;;;;7.97;3.67;;;13.50;99.90;;;;;;6127161;19;20266;-70
2022/11/01 05:22:47;;;;;;;7.40;3.10;;;13.80;99.90;;;;;;6127702;19;19934;-70
2022/11/01 05:24:51;;;;;;;6.45;3.20;;;13.80;99.90;;;;;;6127287;19;19970;-71
2022/11/01 05:26:55;;;;;;;5.07;2.80;;;13.40;99.90;;;;;;6126801;19;20255;-71
2022/11/01 05:29:02;;;;;;;6.53;3.72;;;14.00;99.90;;;;;;6130028;19;19919;-71
2022/11/01 05:31:05;;;;;;;9.68;3.55;;;14.20;99.90;;;;;;6125850;19;20267;-71
2022/11/01 05:33:10;;;;;;;8.40;3.60;;;13.90;99.90;;;;;;6126933;19;20324;-71
2022/11/01 05:35:13;;;;;;;6.47;3.10;;;13.70;99.90;;;;;;6126139;19;19925;-70
2022/11/01 05:37:17;;;;;;;7.47;3.20;;;13.60;99.90;;;;;;6126452;19;20312;-70
2022/11/01 05:39:22;;;;;;;7.53;3.85;;;13.90;99.90;;;;;;6129713;19;19918;-71
2022/11/01 05:41:26;;;;;;;8.02;3.35;;;13.90;99.90;;;;;;6128386;19;19918;-71
2022/11/01 05:43:30;;;;;;;7.57;3.22;;;13.80;99.90;;;;;;6124853;19;20339;-70
2022/11/01 05:45:36;;;;;;;8.05;3.53;;;14.00;99.90;;;;;;6126090;19;19915;-71
2022/11/01 05:47:42;;;;;;;7.65;3.38;;;13.80;99.90;;;;;;6126968;19;19910;-70
2022/11/01 05:49:46;;;;;;;6.03;3.20;;;13.60;99.90;;;;;;6127201;19;20038;-71
2022/11/01 05:51:50;;;;;;;6.93;3.13;;;14.00;99.90;;;;;;6134271;19;19986;-71
2022/11/01 05:53:54;;;;;;;9.80;3.00;;;14.50;99.90;;;;;;6131594;19;19957;-70
2022/11/01 05:55:58;;;;;;;9.13;2.83;;;13.60;99.90;;;;;;6131691;19;19914;-71
2022/11/01 05:58:02;;;;;;;8.10;2.85;;;13.70;99.90;;;;;;6131980;19;19931;-71
2022/11/01 06:00:07;;;;;;;7.57;3.28;;;13.40;99.90;;;;;;6130999;19;19934;-70
2022/11/01 06:02:14;;;;;;;7.28;3.42;;;13.40;99.90;;;;;;6131750;19;20275;-70
2022/11/01 06:04:18;;;;;;;5.18;2.67;;;14.00;99.90;;;;;;6131670;19;19911;-71
2022/11/01 06:06:22;;;;;;;6.97;2.95;;;14.40;99.90;;;;;;6131195;19;20245;-71
2022/11/01 06:08:26;;;;;;;7.57;3.08;;;14.00;99.90;;;;;;6131134;19;19990;-70
2022/11/01 06:10:30;;;;;;;6.85;2.72;;;14.00;99.90;;;;;;6131711;19;20345;-70
2022/11/01 06:12:34;;;;;;;6.25;2.63;;;13.80;99.90;;;;;;6130519;19;19922;-71
2022/11/01 06:14:38;;;;;;;5.07;2.72;;;13.90;99.90;;;;;;6132578;19;20248;-71
2022/11/01 06:16:42;;;;;;;5.38;2.58;;;;;;;;;;6129566;19;19918;-71
2022/11/01 06:18:49;;;;;;;7.70;2.70;;;14.30;99.90;;;;;;6133970;19;19918;-70
2022/11/01 06:20:53;;;;;;;4.43;2.58;;;14.10;99.90;;;;;;6131641;19;20316;-70
2022/11/01 06:22:57;;;;;;;4.88;2.50;;;14.20;99.90;;;;;;6130081;19;19918;-70
2022/11/01 06:25:01;;;;;;;5.70;2.83;;;14.40;99.90;;;;;;6133789;19;20340;-71
2022/11/01 06:27:05;;;;;;;6.00;2.70;;;14.10;99.90;;;;;;6131142;19;19936;-70
2022/11/01 06:29:09;;;;;;;7.18;2.83;;;14.30;99.90;;;;;;6133717;19;19915;-71
2022/11/01 06:31:13;;;;;;;6.60;2.72;;;15.30;99.90;;;;;;6130034;19;20002;-71
2022/11/01 06:33:17;;;;;;;6.60;2.63;;;15.10;99.90;;;;;;6130062;19;19938;-70
2022/11/01 06:35:23;;;;;;;5.93;3.00;;;14.50;99.90;;;;;;6133657;19;20269;-70
2022/11/01 06:37:27;;;;;;;5.05;2.30;;;14.20;99.90;;;;;;6130219;19;19918;-70
2022/11/01 06:39:32;;;;;;;5.32;2.60;;;;;;;;;;6130390;19;19921;-70
2022/11/01 06:41:36;;;;;;;5.43;2.00;;;14.60;99.90;;;;;;6131408;19;19933;-70
2022/11/01 06:43:40;;;;;;;3.58;1.60;;;15.10;99.90;;;;;;6130515;19;20371;-70
2022/11/01 06:45:44;;;;;;;2.47;0.90;;;14.40;99.90;;;;;;6130300;19;20363;-70
2022/11/01 06:47:48;;;;;;;2.40;1.10;;;14.90;99.90;;;;;;6130250;19;19914;-71
2022/11/01 06:49:52;;;;;;;5.30;1.00;;;14.60;99.90;;;;;;6130837;19;20276;-72
2022/11/01 06:51:59;;;;;;;4.55;1.15;;;14.30;99.90;;;;;;6130495;19;19957;-71
2022/11/01 06:54:04;;;;;;;1.70;0.80;;;14.50;99.90;;;;;;6129742;19;19915;-71
2022/11/01 06:56:09;;;;;;;4.18;0.90;;;14.40;99.90;;;;;;6129910;19;20268;-71
2022/11/01 06:58:13;;;;;;;4.70;1.00;;;14.60;99.90;;;;;;6131820;19;19994;-71
2022/11/01 07:00:18;;;;;;;1.58;0.73;;;14.70;99.90;;;;;;6129732;19;19970;-71
2022/11/01 07:02:22;;;;;;;4.75;0.90;;;14.10;99.90;;;;;;6128029;19;20384;-71
2022/11/01 07:04:27;;;;;;;4.13;0.85;;;14.10;99.90;;;;;;6129862;19;19942;-72
2022/11/01 07:06:32;;;;;;;2.42;0.80;;;14.10;99.90;;;;;;6130642;19;19926;-71
2022/11/01 07:08:38;;;;;;;1.75;0.80;;;13.80;99.90;;;;;;6129969;19;19918;-71
2022/11/01 07:10:44;;;;;;;1.38;0.63;;;13.90;99.90;;;;;;6129649;19;19930;-71
2022/11/01 07:12:47;;;;;;;7.85;1.10;;;13.90;99.90;;;;;;6129892;19;19935;-71
2022/11/01 07:14:51;;;;;;;2.83;1.00;;;13.80;99.90;;;;;;6129550;19;19926;-71
2022/11/01 07:16:55;;;;;;;3.20;0.80;;;13.80;99.90;;;;;;6130932;19;19915;-71
2022/11/01 07:18:59;;;;;;;2.13;0.93;;;13.70;99.90;;;;;;6129561;19;20342;-71
2022/11/01 07:21:08;;;;;;;3.03;0.60;;;13.80;99.90;;;;;;6129577;19;20013;-71
2022/11/01 07:23:14;;;;;;;2.88;1.10;;;13.90;99.90;;;;;;6130838;19;19946;-71
2022/11/01 07:25:20;;;;;;;3.15;0.70;;;13.90;99.90;;;;;;6128945;19;20374;-71
2022/11/01 07:27:24;;;;;;;2.10;0.93;;;13.50;99.90;;;;;;6130295;19;19921;-71
2022/11/01 07:29:28;;;;;;;3.90;0.95;;;;;;;;;;6128969;19;19910;-71
2022/11/01 07:31:32;;;;;;;3.63;0.73;;;;;;;;;;6127679;19;19921;-71
2022/11/01 07:33:36;;;;;;;3.70;0.88;;;13.30;99.90;;;;;;6128994;19;20248;-71
2022/11/01 07:35:40;;;;;;;2.85;0.90;;;13.60;99.90;;;;;;6129760;19;19950;-69
2022/11/01 07:37:44;;;;;;;5.50;0.80;;;13.80;99.90;;;;;;6132085;19;20303;-70
2022/11/01 07:39:49;;;;;;;1.02;0.50;;;13.60;99.90;;;;;;6129722;19;19914;-71
2022/11/01 07:41:56;;;;;;;3.08;0.98;;;13.40;99.90;;;;;;6129084;19;19925;-71
2022/11/01 07:44:00;;;;;;;3.80;0.90;;;13.60;99.90;;;;;;6127953;19;19919;-71
2022/11/01 07:46:06;;;;;;;3.58;0.70;;;13.80;99.90;;;;;;6128981;19;19953;-71
2022/11/01 07:48:12;;;;;;;0.90;0.40;;;13.30;99.90;;;;;;6129262;19;19934;-71
2022/11/01 07:50:16;;;;;;;2.70;0.70;;;14.00;99.90;;;;;;6127871;19;19949;-72
2022/11/01 07:52:20;;;;;;;1.92;0.60;;;13.20;99.90;;;;;;6132417;19;19954;-71
2022/11/01 07:54:24;;;;;;;5.35;0.73;;;13.60;99.90;;;;;;6128736;19;19930;-71
2022/11/01 07:56:28;;;;;;;4.55;0.88;;;13.80;99.90;;;;;;6128702;19;19934;-72
2022/11/01 07:58:35;;;;;;;3.88;0.85;;;13.60;99.90;;;;;;6128380;19;19918;-72
2022/11/01 08:00:40;;;;;;;0.77;0.40;;;13.80;99.90;;;;;;6128387;19;19941;-71
2022/11/01 08:02:44;;;;;;;0.75;0.40;;;13.40;99.90;;;;;;6127275;19;19945;-71
2022/11/01 08:04:48;;;;;;;1.75;0.40;;;13.60;99.90;;;;;;6128077;19;19914;-72
2022/11/01 08:06:52;;;;;;;1.30;0.32;;;;;;;;;;6128634;19;20263;-72
2022/11/01 08:08:55;;;;;;;2.47;0.65;;;14.10;99.90;;;;;;6128488;19;19911;-72
2022/11/01 08:11:02;;;;;;;3.50;0.82;;;13.80;99.90;;;;;;6128766;19;19910;-72
2022/11/01 08:13:07;;;;;;;2.83;0.57;;;13.50;99.90;;;;;;6127874;19;19922;-69
2022/11/01 08:15:14;;;;;;;3.88;1.15;;;14.10;99.90;;;;;;6128731;19;19914;-71
2022/11/01 08:17:18;;;;;;;3.78;1.00;;;;;;;;;;6130877;19;19926;-71
2022/11/01 08:19:22;;;;;;;4.45;0.60;;;14.30;99.90;;;;;;6128773;19;19931;-71
2022/11/01 08:21:26;;;;;;;2.38;0.50;;;13.40;99.90;;;;;;6129608;19;19918;-70
2022/11/01 08:23:30;;;;;;;4.25;1.10;;;;;;;;;;6127932;19;19915;-71
2022/11/01 08:25:34;;;;;;;2.75;0.60;;;14.40;99.90;;;;;;6130021;19;19918;-70
2022/11/01 08:27:38;;;;;;;1.73;0.50;;;14.00;99.90;;;;;;6129796;19;20526;-71
2022/11/01 08:29:42;;;;;;;4.95;0.82;;;14.30;99.90;;;;;;6127934;19;20709;-71
2022/11/01 08:31:49;;;;;;;6.32;1.08;;;14.30;99.90;;;;;;6129726;19;20000;-70
2022/11/01 08:33:53;;;;;;;3.63;0.90;;;14.00;99.90;;;;;;6127784;19;19926;-71
2022/11/01 08:35:57;;;;;;;2.47;0.47;;;14.60;99.90;;;;;;6127301;19;19910;-71
2022/11/01 08:38:02;;;;;;;7.60;0.82;;;14.10;99.90;;;;;;6128202;19;19918;-70
2022/11/01 08:40:09;;;;;;;6.80;0.70;;;14.10;99.90;;;;;;6127754;19;20354;-70
2022/11/01 08:42:13;;;;;;;9.07;0.82;;;14.50;99.90;;;;;;6126971;19;19919;-71
2022/11/01 08:44:18;;;;;;;3.53;0.60;;;14.30;99.90;;;;;;6129118;19;20241;-71
2022/11/01 08:46:22;;;;;;;5.78;0.88;;;14.00;99.90;;;;;;6128984;19;19922;-71
2022/11/01 08:48:28;;;;;;;4.38;1.02;;;14.10;99.90;;;;;;6130864;19;20332;-71
2022/11/01 08:50:33;;;;;;;6.97;1.77;;;14.10;99.90;;;;;;6128807;19;19915;-70
2022/11/01 08:52:37;;;;;;;3.45;0.80;;;13.80;99.90;;;;;;6128651;19;19945;-70
2022/11/01 08:54:41;;;;;;;6.22;1.00;;;14.40;99.90;;;;;;6129330;19;19915;-71
2022/11/01 08:56:45;;;;;;;5.63;1.63;;;14.20;99.90;;;;;;6128732;19;19939;-70
2022/11/01 08:58:50;;;;;;;7.00;1.00;;;13.90;99.90;;;;;;6129959;19;20344;-72
2022/11/01 09:00:54;;;;;;;9.30;1.00;;;14.50;99.90;;;;;;6130209;19;20344;-70
2022/11/01 09:02:58;;;;;;;6.90;1.23;;;13.80;99.90;;;;;;6125690;19;19938;-71
2022/11/01 09:05:06;;;;;;;5.68;0.90;;;13.60;99.90;;;;;;6127421;19;19915;-71
2022/11/01 09:07:10;;;;;;;9.40;1.85;;;13.60;99.90;;;;;;6127051;19;20327;-71
2022/11/01 09:09:14;;;;;;;6.93;1.10;;;13.90;99.90;;;;;;6127172;19;19919;-71
2022/11/01 09:11:19;;;;;;;9.55;1.17;;;13.70;99.90;;;;;;6127141;19;20355;-71
2022/11/01 09:13:22;;;;;;;5.43;1.05;;;14.30;99.90;;;;;;6128773;19;19918;-71
2022/11/01 09:15:26;;;;;;;6.80;1.20;;;14.40;99.90;;;;;;6129479;19;20366;-71
2022/11/01 09:17:31;;;;;;;9.52;1.65;;;14.30;99.90;;;;;;6129597;19;19918;-72
2022/11/01 09:19:34;;;;;;;9.90;1.45;;;13.70;99.90;;;;;;6127010;19;20350;-71
2022/11/01 09:21:41;;;;;;;11.82;1.30;;;14.30;99.90;;;;;;6130071;19;19915;-72
2022/11/01 09:23:45;;;;;;;12.88;2.83;;;15.00;99.90;;;;;;6126004;19;19919;-71
2022/11/01 09:25:49;;;;;;;7.88;1.75;;;14.70;99.90;;;;;;6130144;19;19926;-71
2022/11/01 09:27:53;;;;;;;9.25;1.90;;;14.20;99.90;;;;;;6127194;19;19942;-71
2022/11/01 09:29:56;;;;;;;10.85;1.77;;;14.30;99.90;;;;;;6126922;19;20344;-71
2022/11/01 09:32:00;;;;;;;9.93;1.52;;;14.40;99.90;;;;;;6126939;19;19937;-71
2022/11/01 09:34:04;;;;;;;9.15;1.30;;;;;;;;;;6126172;19;19914;-71
2022/11/01 09:36:09;;;;;;;5.55;1.30;;;14.70;99.90;;;;;;6126449;19;20343;-71
2022/11/01 09:38:15;;;;;;;11.25;1.33;;;14.40;99.90;;;;;;6128013;19;19942;-71
2022/11/01 09:40:20;;;;;;;5.32;1.20;;;15.00;99.90;;;;;;6126623;19;19915;-71
2022/11/01 09:42:31;;;;;;;7.97;1.20;;;14.40;99.90;;;;;;6126381;19;19941;-70
2022/11/01 09:44:39;;;;;;;8.23;1.23;;;14.30;99.90;;;;;;6125149;19;19928;-70
2022/11/01 09:46:48;;;;;;;5.35;1.00;;;14.80;99.90;;;;;;6128931;19;19919;-71
2022/11/01 09:48:51;;;;;;;6.50;1.35;;;14.20;99.90;;;;;;6126045;19;19911;-71
2022/11/01 09:50:56;;;;;;;7.40;1.20;;;14.40;99.90;;;;;;6122060;19;20248;-71
2022/11/01 09:53:00;;;;;;;5.85;1.23;;;14.80;99.90;;;;;;6124904;19;20362;-71
2022/11/01 09:55:11;;;;;;;9.75;1.52;;;15.10;99.90;;;;;;6125418;19;19918;-70
2022/11/01 09:57:21;;;;;;;9.65;1.70;;;15.10;99.90;;;;;;6125575;19;19923;-70
2022/11/01 09:59:32;;;;;;;11.40;1.98;;;14.90;99.90;;;;;;6125332;19;19923;-70
2022/11/01 10:01:47;;;;;;;6.20;1.55;;;14.40;99.90;;;;;;6124759;19;19925;-70
2022/11/01 10:04:07;;;;;;;7.30;1.23;;;14.60;99.90;;;;;;6124917;19;20078;-70
2022/11/01 10:06:18;;;;;;;8.75;1.30;;;14.70;99.90;;;;;;6127985;19;19921;-70
2022/11/01 10:08:31;;;;;;;8.38;1.45;;;14.60;99.90;;;;;;6125859;19;19914;-70
2022/11/01 10:10:44;;;;;;;7.07;1.20;;;14.70;99.90;;;;;;6124307;19;20392;-70
2022/11/01 10:13:01;;;;;;;10.63;1.60;;;14.40;99.90;;;;;;6125515;19;19915;-71
2022/11/01 10:15:31;;;;;;;7.68;1.40;;;15.50;99.90;;;;;;6125088;19;19919;-71
2022/11/01 10:17:50;;;;;;;9.25;1.65;;;15.00;99.90;;;;;;6125117;19;19927;-70
2022/11/01 10:19:54;;;;;;;10.15;1.40;;;14.70;99.90;;;;;;6128252;19;19922;-71
2022/11/01 10:22:02;;;;;;;7.53;1.63;;;15.00;99.90;;;;;;6127577;19;20160;-71
2022/11/01 10:24:09;;;;;;;9.05;1.80;;;14.80;99.90;;;;;;6124666;19;19918;-71
2022/11/01 10:26:21;;;;;;;6.35;1.30;;;15.10;99.90;;;;;;6125048;19;19923;-71
2022/11/01 10:28:33;;;;;;;10.75;1.92;;;15.50;99.90;;;;;;6125293;19;19914;-70
2022/11/01 10:30:41;;;;;;;10.27;1.60;;;15.50;99.90;;;;;;6126226;19;19978;-71
2022/11/01 10:32:51;;;;;;;8.07;1.90;;;14.70;99.90;;;;;;6124857;19;19911;-71
2022/11/01 10:35:01;;;;;;;9.98;1.42;;;14.80;99.90;;;;;;6124843;19;19935;-71
2022/11/01 10:37:17;;;;;;;7.07;1.75;;;15.60;99.90;;;;;;6129178;19;19926;-71
2022/11/01 10:39:31;;;;;;;9.95;1.23;;;14.90;99.90;;;;;;6132298;19;19915;-70
2022/11/01 10:41:43;;;;;;;5.38;1.10;;;14.70;99.90;;;;;;6132638;19;19942;-72
2022/11/01 10:43:51;;;;;;;7.93;1.33;;;14.80;99.90;;;;;;6131023;19;19923;-70
2022/11/01 10:45:58;;;;;;;4.18;1.30;;;15.30;99.90;;;;;;6130123;19;19926;-71
2022/11/01 10:48:02;;;;;;;7.30;1.13;;;14.60;99.90;;;;;;6133828;19;19919;-72
2022/11/01 10:50:16;;;;;;;5.45;1.52;;;15.20;99.90;;;;;;6131254;19;19945;-72
2022/11/01 10:52:25;;;;;;;8.70;1.20;;;15.60;99.90;;;;;;6129444;19;19927;-81
2022/11/01 10:54:32;;;;;;;12.55;1.67;;;15.20;99.90;;;;;;6132832;19;19935;-82
2022/11/01 10:56:44;;;;;;;7.00;1.42;;;16.30;99.90;;;;;;6130742;19;19923;-72
2022/11/01 10:58:54;;;;;;;7.78;1.45;;;15.30;99.90;;;;;;6133095;19;19926;-88
2022/11/01 11:00:58;;;;;;;11.48;1.77;;;15.30;99.90;;;;;;6132020;19;20512;-80
2022/11/01 11:03:15;;;;;;;11.05;2.15;;;15.50;99.90;;;;;;6128551;19;19942;-81
2022/11/01 11:05:21;;;;;;;10.27;1.42;;;14.90;99.90;;;;;;6131334;19;19922;-81
2022/11/01 11:07:27;;;;;;;8.25;1.50;;;15.50;99.90;;;;;;6131000;19;19922;-82
2022/11/01 11:09:34;;;;;;;12.48;1.30;;;15.50;99.90;;;;;;6130443;19;19914;-81
2022/11/01 11:11:44;;;;;;;11.50;1.70;;;15.20;99.90;;;;;;6130470;19;19941;-72
2022/11/01 11:13:52;;;;;;;9.80;1.52;;;15.10;99.90;;;;;;6131461;19;20454;-74